sensor_id;sensor_type;location;lat;lon;timestamp;P1;P2;P0
73517;PMS5003;61766;60.318;25.044;2022-09-13T00:00:12;1;1;
73517;PMS5003;61766;60.318;25.044;2022-09-13T00:02:37;2;2;
73517;PMS5003;61766;60.318;25.044;2022-09-13T00:05:02;3;3;
73517;PMS5003;61766;60.318;25.044;2022-09-13T00:07:27;3;3;
73517;PMS5003;61766;60.318;25.044;2022-09-13T00:09:52;0;0;
73517;PMS5003;61766;60.318;25.044;2022-09-13T00:12:17;3;3;
73517;PMS5003;61766;60.318;25.044;2022-09-13T00:14:42;2;2;
73517;PMS5003;61766;60.318;25.044;2022-09-13T00:17:07;2;2;
73517;PMS5003;61766;60.318;25.044;2022-09-13T00:19:32;1;1;
73517;PMS5003;61766;60.318;25.044;2022-09-13T00:21:57;2;2;
73517;PMS5003;61766;60.318;25.044;2022-09-13T00:24:22;4;2;
73517;PMS5003;61766;60.318;25.044;2022-09-13T00:26:47;2;2;
73517;PMS5003;61766;60.318;25.044;2022-09-13T00:29:13;1;1;
73517;PMS5003;61766;60.318;25.044;2022-09-13T00:31:37;1;1;
73517;PMS5003;61766;60.318;25.044;2022-09-13T00:34:03;2;2;
73517;PMS5003;61766;60.318;25.044;2022-09-13T00:36:28;2;2;
73517;PMS5003;61766;60.318;25.044;2022-09-13T00:38:53;2;2;
73517;PMS5003;61766;60.318;25.044;2022-09-13T00:41:18;2;2;
73517;PMS5003;61766;60.318;25.044;2022-09-13T00:43:44;1;1;
73517;PMS5003;61766;60.318;25.044;2022-09-13T00:46:08;1;1;
73517;PMS5003;61766;60.318;25.044;2022-09-13T00:48:33;1;0;
73517;PMS5003;61766;60.318;25.044;2022-09-13T00:50:58;2;2;
73517;PMS5003;61766;60.318;25.044;2022-09-13T00:53:23;1;1;
73517;PMS5003;61766;60.318;25.044;2022-09-13T00:55:49;1;1;
73517;PMS5003;61766;60.318;25.044;2022-09-13T00:58:15;1;1;
73517;PMS5003;61766;60.318;25.044;2022-09-13T01:00:38;1;1;
73517;PMS5003;61766;60.318;25.044;2022-09-13T01:03:04;2;2;
73517;PMS5003;61766;60.318;25.044;2022-09-13T01:05:29;2;2;
73517;PMS5003;61766;60.318;25.044;2022-09-13T01:07:54;1;1;
73517;PMS5003;61766;60.318;25.044;2022-09-13T01:10:18;2;2;
73517;PMS5003;61766;60.318;25.044;2022-09-13T01:12:44;4;4;
73517;PMS5003;61766;60.318;25.044;2022-09-13T01:15:09;1;1;
73517;PMS5003;61766;60.318;25.044;2022-09-13T01:17:33;2;2;
73517;PMS5003;61766;60.318;25.044;2022-09-13T01:19:58;2;2;
73517;PMS5003;61766;60.318;25.044;2022-09-13T01:22:31;2;2;
73517;PMS5003;61766;60.318;25.044;2022-09-13T01:27:15;2;2;
73517;PMS5003;61766;60.318;25.044;2022-09-13T01:29:44;1;1;
73517;PMS5003;61766;60.318;25.044;2022-09-13T01:32:05;2;1;
73517;PMS5003;61766;60.318;25.044;2022-09-13T01:34:31;1;1;
73517;PMS5003;61766;60.318;25.044;2022-09-13T01:36:57;1;1;
73517;PMS5003;61766;60.318;25.044;2022-09-13T01:39:21;2;1;
73517;PMS5003;61766;60.318;25.044;2022-09-13T01:41:47;1;1;
73517;PMS5003;61766;60.318;25.044;2022-09-13T01:44:11;1;1;
73517;PMS5003;61766;60.318;25.044;2022-09-13T01:46:35;1;1;
73517;PMS5003;61766;60.318;25.044;2022-09-13T01:48:59;0;0;
73517;PMS5003;61766;60.318;25.044;2022-09-13T01:51:26;2;2;
73517;PMS5003;61766;60.318;25.044;2022-09-13T01:53:52;2;2;
73517;PMS5003;61766;60.318;25.044;2022-09-13T01:56:16;1;1;
73517;PMS5003;61766;60.318;25.044;2022-09-13T01:58:41;0;0;
73517;PMS5003;61766;60.318;25.044;2022-09-13T02:01:06;1;1;
73517;PMS5003;61766;60.318;25.044;2022-09-13T02:03:32;1;1;
73517;PMS5003;61766;60.318;25.044;2022-09-13T02:05:56;0;0;
73517;PMS5003;61766;60.318;25.044;2022-09-13T02:08:21;2;2;
73517;PMS5003;61766;60.318;25.044;2022-09-13T02:10:46;2;2;
73517;PMS5003;61766;60.318;25.044;2022-09-13T02:13:12;2;2;
73517;PMS5003;61766;60.318;25.044;2022-09-13T02:15:36;0;0;
73517;PMS5003;61766;60.318;25.044;2022-09-13T02:18:07;1;1;
73517;PMS5003;61766;60.318;25.044;2022-09-13T02:20:26;1;1;
73517;PMS5003;61766;60.318;25.044;2022-09-13T02:22:51;1;1;
73517;PMS5003;61766;60.318;25.044;2022-09-13T02:25:16;0;0;
73517;PMS5003;61766;60.318;25.044;2022-09-13T02:27:40;1;1;
73517;PMS5003;61766;60.318;25.044;2022-09-13T02:30:06;0;0;
73517;PMS5003;61766;60.318;25.044;2022-09-13T02:32:31;3;3;
73517;PMS5003;61766;60.318;25.044;2022-09-13T02:34:57;1;1;
73517;PMS5003;61766;60.318;25.044;2022-09-13T02:37:20;1;1;
73517;PMS5003;61766;60.318;25.044;2022-09-13T02:39:46;1;1;
73517;PMS5003;61766;60.318;25.044;2022-09-13T02:42:12;2;1;
73517;PMS5003;61766;60.318;25.044;2022-09-13T02:44:37;1;1;
73517;PMS5003;61766;60.318;25.044;2022-09-13T02:47:05;1;1;
73517;PMS5003;61766;60.318;25.044;2022-09-13T02:49:28;1;1;
73517;PMS5003;61766;60.318;25.044;2022-09-13T02:51:54;1;1;
73517;PMS5003;61766;60.318;25.044;2022-09-13T02:54:22;0;0;
73517;PMS5003;61766;60.318;25.044;2022-09-13T02:56:47;1;1;
73517;PMS5003;61766;60.318;25.044;2022-09-13T02:59:12;1;1;
73517;PMS5003;61766;60.318;25.044;2022-09-13T03:01:37;1;1;
73517;PMS5003;61766;60.318;25.044;2022-09-13T03:04:03;2;2;
73517;PMS5003;61766;60.318;25.044;2022-09-13T03:06:29;1;1;
73517;PMS5003;61766;60.318;25.044;2022-09-13T03:08:55;0;0;
73517;PMS5003;61766;60.318;25.044;2022-09-13T03:11:23;2;2;
73517;PMS5003;61766;60.318;25.044;2022-09-13T03:13:51;2;2;
73517;PMS5003;61766;60.318;25.044;2022-09-13T03:16:17;0;0;
73517;PMS5003;61766;60.318;25.044;2022-09-13T03:18:43;2;2;
73517;PMS5003;61766;60.318;25.044;2022-09-13T03:21:05;1;1;
73517;PMS5003;61766;60.318;25.044;2022-09-13T03:23:33;1;1;
73517;PMS5003;61766;60.318;25.044;2022-09-13T03:26:00;2;2;
73517;PMS5003;61766;60.318;25.044;2022-09-13T03:28:23;2;2;
73517;PMS5003;61766;60.318;25.044;2022-09-13T03:30:48;2;2;
73517;PMS5003;61766;60.318;25.044;2022-09-13T03:33:14;2;2;
73517;PMS5003;61766;60.318;25.044;2022-09-13T03:35:38;2;2;
73517;PMS5003;61766;60.318;25.044;2022-09-13T03:38:04;1;0;
73517;PMS5003;61766;60.318;25.044;2022-09-13T03:40:33;1;1;
73517;PMS5003;61766;60.318;25.044;2022-09-13T03:42:54;1;1;
73517;PMS5003;61766;60.318;25.044;2022-09-13T03:45:20;2;2;
73517;PMS5003;61766;60.318;25.044;2022-09-13T03:47:44;2;2;
73517;PMS5003;61766;60.318;25.044;2022-09-13T03:50:09;1;1;
73517;PMS5003;61766;60.318;25.044;2022-09-13T03:52:34;2;2;
73517;PMS5003;61766;60.318;25.044;2022-09-13T03:54:59;1;1;
73517;PMS5003;61766;60.318;25.044;2022-09-13T03:57:24;2;2;
73517;PMS5003;61766;60.318;25.044;2022-09-13T03:59:50;1;1;
73517;PMS5003;61766;60.318;25.044;2022-09-13T04:02:14;2;2;
73517;PMS5003;61766;60.318;25.044;2022-09-13T04:04:40;2;1;
73517;PMS5003;61766;60.318;25.044;2022-09-13T04:07:04;2;2;
73517;PMS5003;61766;60.318;25.044;2022-09-13T04:09:30;1;1;
73517;PMS5003;61766;60.318;25.044;2022-09-13T04:11:54;0;0;
73517;PMS5003;61766;60.318;25.044;2022-09-13T04:14:19;2;2;
73517;PMS5003;61766;60.318;25.044;2022-09-13T04:16:44;1;1;
73517;PMS5003;61766;60.318;25.044;2022-09-13T04:19:09;1;1;
73517;PMS5003;61766;60.318;25.044;2022-09-13T04:21:34;3;3;
73517;PMS5003;61766;60.318;25.044;2022-09-13T04:23:59;1;1;
73517;PMS5003;61766;60.318;25.044;2022-09-13T04:26:24;2;2;
73517;PMS5003;61766;60.318;25.044;2022-09-13T04:28:51;2;2;
73517;PMS5003;61766;60.318;25.044;2022-09-13T04:31:14;2;2;
73517;PMS5003;61766;60.318;25.044;2022-09-13T04:33:39;1;1;
73517;PMS5003;61766;60.318;25.044;2022-09-13T04:36:05;2;2;
73517;PMS5003;61766;60.318;25.044;2022-09-13T04:38:29;2;2;
73517;PMS5003;61766;60.318;25.044;2022-09-13T04:40:54;2;2;
73517;PMS5003;61766;60.318;25.044;2022-09-13T04:43:20;1;1;
73517;PMS5003;61766;60.318;25.044;2022-09-13T04:45:45;4;3;
73517;PMS5003;61766;60.318;25.044;2022-09-13T04:48:09;3;2;
73517;PMS5003;61766;60.318;25.044;2022-09-13T04:50:35;2;2;
73517;PMS5003;61766;60.318;25.044;2022-09-13T04:52:59;2;2;
73517;PMS5003;61766;60.318;25.044;2022-09-13T04:55:24;2;2;
73517;PMS5003;61766;60.318;25.044;2022-09-13T04:57:51;2;1;
73517;PMS5003;61766;60.318;25.044;2022-09-13T05:00:14;3;2;
73517;PMS5003;61766;60.318;25.044;2022-09-13T05:02:40;1;1;
73517;PMS5003;61766;60.318;25.044;2022-09-13T05:05:06;2;2;
73517;PMS5003;61766;60.318;25.044;2022-09-13T05:07:31;3;3;
73517;PMS5003;61766;60.318;25.044;2022-09-13T05:09:56;2;2;
73517;PMS5003;61766;60.318;25.044;2022-09-13T05:12:22;1;1;
73517;PMS5003;61766;60.318;25.044;2022-09-13T05:14:48;1;1;
73517;PMS5003;61766;60.318;25.044;2022-09-13T05:17:13;1;1;
73517;PMS5003;61766;60.318;25.044;2022-09-13T05:19:38;2;2;
73517;PMS5003;61766;60.318;25.044;2022-09-13T05:22:03;1;1;
73517;PMS5003;61766;60.318;25.044;2022-09-13T05:24:28;1;1;
73517;PMS5003;61766;60.318;25.044;2022-09-13T05:26:53;1;1;
73517;PMS5003;61766;60.318;25.044;2022-09-13T05:29:18;2;2;
73517;PMS5003;61766;60.318;25.044;2022-09-13T05:31:44;2;2;
73517;PMS5003;61766;60.318;25.044;2022-09-13T05:34:09;1;1;
73517;PMS5003;61766;60.318;25.044;2022-09-13T05:36:34;2;2;
73517;PMS5003;61766;60.318;25.044;2022-09-13T05:38:59;2;2;
73517;PMS5003;61766;60.318;25.044;2022-09-13T05:41:24;2;2;
73517;PMS5003;61766;60.318;25.044;2022-09-13T05:43:49;2;2;
73517;PMS5003;61766;60.318;25.044;2022-09-13T05:46:15;2;2;
73517;PMS5003;61766;60.318;25.044;2022-09-13T05:48:39;2;2;
73517;PMS5003;61766;60.318;25.044;2022-09-13T05:51:05;2;2;
73517;PMS5003;61766;60.318;25.044;2022-09-13T05:53:29;2;2;
73517;PMS5003;61766;60.318;25.044;2022-09-13T05:55:54;3;2;
73517;PMS5003;61766;60.318;25.044;2022-09-13T05:58:19;1;1;
73517;PMS5003;61766;60.318;25.044;2022-09-13T06:00:44;2;2;
73517;PMS5003;61766;60.318;25.044;2022-09-13T06:03:10;2;2;
73517;PMS5003;61766;60.318;25.044;2022-09-13T06:05:36;1;1;
73517;PMS5003;61766;60.318;25.044;2022-09-13T06:08:01;4;2;
73517;PMS5003;61766;60.318;25.044;2022-09-13T06:10:31;2;2;
73517;PMS5003;61766;60.318;25.044;2022-09-13T06:12:52;2;2;
73517;PMS5003;61766;60.318;25.044;2022-09-13T06:15:17;3;3;
73517;PMS5003;61766;60.318;25.044;2022-09-13T06:17:43;2;2;
73517;PMS5003;61766;60.318;25.044;2022-09-13T06:20:09;2;2;
73517;PMS5003;61766;60.318;25.044;2022-09-13T06:22:35;2;1;
73517;PMS5003;61766;60.318;25.044;2022-09-13T06:25:01;2;2;
73517;PMS5003;61766;60.318;25.044;2022-09-13T06:27:28;2;2;
73517;PMS5003;61766;60.318;25.044;2022-09-13T06:29:53;0;0;
73517;PMS5003;61766;60.318;25.044;2022-09-13T06:32:18;2;2;
73517;PMS5003;61766;60.318;25.044;2022-09-13T06:34:43;2;1;
73517;PMS5003;61766;60.318;25.044;2022-09-13T06:37:08;2;2;
73517;PMS5003;61766;60.318;25.044;2022-09-13T06:39:33;2;2;
73517;PMS5003;61766;60.318;25.044;2022-09-13T06:41:59;2;2;
73517;PMS5003;61766;60.318;25.044;2022-09-13T06:44:24;1;1;
73517;PMS5003;61766;60.318;25.044;2022-09-13T06:46:48;1;1;
73517;PMS5003;61766;60.318;25.044;2022-09-13T06:49:13;2;2;
73517;PMS5003;61766;60.318;25.044;2022-09-13T06:51:38;2;2;
73517;PMS5003;61766;60.318;25.044;2022-09-13T06:54:03;1;1;
73517;PMS5003;61766;60.318;25.044;2022-09-13T06:56:29;1;1;
73517;PMS5003;61766;60.318;25.044;2022-09-13T06:58:54;2;2;
73517;PMS5003;61766;60.318;25.044;2022-09-13T07:01:19;1;1;
73517;PMS5003;61766;60.318;25.044;2022-09-13T07:03:45;0;0;
73517;PMS5003;61766;60.318;25.044;2022-09-13T07:06:11;1;1;
73517;PMS5003;61766;60.318;25.044;2022-09-13T07:08:37;0;0;
73517;PMS5003;61766;60.318;25.044;2022-09-13T07:11:02;1;1;
73517;PMS5003;61766;60.318;25.044;2022-09-13T07:13:28;2;2;
73517;PMS5003;61766;60.318;25.044;2022-09-13T07:15:54;1;1;
73517;PMS5003;61766;60.318;25.044;2022-09-13T07:18:19;1;1;
73517;PMS5003;61766;60.318;25.044;2022-09-13T07:20:46;1;1;
73517;PMS5003;61766;60.318;25.044;2022-09-13T07:23:11;2;2;
73517;PMS5003;61766;60.318;25.044;2022-09-13T07:25:37;1;1;
73517;PMS5003;61766;60.318;25.044;2022-09-13T07:28:03;2;1;
73517;PMS5003;61766;60.318;25.044;2022-09-13T07:30:29;1;1;
73517;PMS5003;61766;60.318;25.044;2022-09-13T07:32:55;1;1;
73517;PMS5003;61766;60.318;25.044;2022-09-13T07:35:20;0;0;
73517;PMS5003;61766;60.318;25.044;2022-09-13T07:37:46;1;1;
73517;PMS5003;61766;60.318;25.044;2022-09-13T07:40:12;2;1;
73517;PMS5003;61766;60.318;25.044;2022-09-13T07:42:38;2;2;
73517;PMS5003;61766;60.318;25.044;2022-09-13T07:45:04;1;1;
73517;PMS5003;61766;60.318;25.044;2022-09-13T07:47:31;2;2;
73517;PMS5003;61766;60.318;25.044;2022-09-13T07:49:55;1;1;
73517;PMS5003;61766;60.318;25.044;2022-09-13T07:52:21;2;1;
73517;PMS5003;61766;60.318;25.044;2022-09-13T07:54:47;0;0;
73517;PMS5003;61766;60.318;25.044;2022-09-13T07:57:13;1;1;
73517;PMS5003;61766;60.318;25.044;2022-09-13T07:59:39;1;1;
73517;PMS5003;61766;60.318;25.044;2022-09-13T08:02:05;2;1;
73517;PMS5003;61766;60.318;25.044;2022-09-13T08:04:30;1;1;
73517;PMS5003;61766;60.318;25.044;2022-09-13T08:06:56;2;2;
73517;PMS5003;61766;60.318;25.044;2022-09-13T08:09:22;2;2;
73517;PMS5003;61766;60.318;25.044;2022-09-13T08:11:49;1;1;
73517;PMS5003;61766;60.318;25.044;2022-09-13T08:14:15;2;2;
73517;PMS5003;61766;60.318;25.044;2022-09-13T08:16:40;1;1;
73517;PMS5003;61766;60.318;25.044;2022-09-13T08:19:06;1;1;
73517;PMS5003;61766;60.318;25.044;2022-09-13T08:21:32;1;1;
73517;PMS5003;61766;60.318;25.044;2022-09-13T08:23:57;2;2;
73517;PMS5003;61766;60.318;25.044;2022-09-13T08:26:24;1;1;
73517;PMS5003;61766;60.318;25.044;2022-09-13T08:28:53;1;1;
73517;PMS5003;61766;60.318;25.044;2022-09-13T08:31:15;2;2;
73517;PMS5003;61766;60.318;25.044;2022-09-13T08:33:41;1;1;
73517;PMS5003;61766;60.318;25.044;2022-09-13T08:36:07;2;2;
73517;PMS5003;61766;60.318;25.044;2022-09-13T08:38:32;2;2;
73517;PMS5003;61766;60.318;25.044;2022-09-13T08:40:59;1;1;
73517;PMS5003;61766;60.318;25.044;2022-09-13T08:43:27;2;2;
73517;PMS5003;61766;60.318;25.044;2022-09-13T08:45:50;2;2;
73517;PMS5003;61766;60.318;25.044;2022-09-13T08:48:18;1;1;
73517;PMS5003;61766;60.318;25.044;2022-09-13T08:50:42;3;3;
73517;PMS5003;61766;60.318;25.044;2022-09-13T08:53:12;2;2;
73517;PMS5003;61766;60.318;25.044;2022-09-13T08:55:36;1;1;
73517;PMS5003;61766;60.318;25.044;2022-09-13T08:58:00;1;1;
73517;PMS5003;61766;60.318;25.044;2022-09-13T09:00:26;3;3;
73517;PMS5003;61766;60.318;25.044;2022-09-13T09:02:54;4;4;
73517;PMS5003;61766;60.318;25.044;2022-09-13T09:05:17;1;1;
73517;PMS5003;61766;60.318;25.044;2022-09-13T09:07:43;5;4;
73517;PMS5003;61766;60.318;25.044;2022-09-13T09:10:13;2;2;
73517;PMS5003;61766;60.318;25.044;2022-09-13T09:12:37;4;4;
73517;PMS5003;61766;60.318;25.044;2022-09-13T09:15:02;2;2;
73517;PMS5003;61766;60.318;25.044;2022-09-13T09:17:27;3;3;
73517;PMS5003;61766;60.318;25.044;2022-09-13T09:19:52;3;3;
73517;PMS5003;61766;60.318;25.044;2022-09-13T09:22:18;2;2;
73517;PMS5003;61766;60.318;25.044;2022-09-13T09:24:44;3;3;
73517;PMS5003;61766;60.318;25.044;2022-09-13T09:27:10;3;3;
73517;PMS5003;61766;60.318;25.044;2022-09-13T09:29:35;4;4;
73517;PMS5003;61766;60.318;25.044;2022-09-13T09:32:05;4;4;
73517;PMS5003;61766;60.318;25.044;2022-09-13T09:34:29;4;3;
73517;PMS5003;61766;60.318;25.044;2022-09-13T09:36:53;4;4;
73517;PMS5003;61766;60.318;25.044;2022-09-13T09:39:18;4;4;
73517;PMS5003;61766;60.318;25.044;2022-09-13T09:41:44;3;3;
73517;PMS5003;61766;60.318;25.044;2022-09-13T09:44:15;5;5;
73517;PMS5003;61766;60.318;25.044;2022-09-13T09:46:37;4;3;
73517;PMS5003;61766;60.318;25.044;2022-09-13T09:49:03;4;4;
73517;PMS5003;61766;60.318;25.044;2022-09-13T09:51:27;5;5;
73517;PMS5003;61766;60.318;25.044;2022-09-13T09:53:53;5;5;
73517;PMS5003;61766;60.318;25.044;2022-09-13T09:56:20;4;3;
73517;PMS5003;61766;60.318;25.044;2022-09-13T09:58:45;4;4;
73517;PMS5003;61766;60.318;25.044;2022-09-13T10:01:15;4;4;
73517;PMS5003;61766;60.318;25.044;2022-09-13T10:03:36;7;7;
73517;PMS5003;61766;60.318;25.044;2022-09-13T10:06:04;5;4;
73517;PMS5003;61766;60.318;25.044;2022-09-13T10:08:29;5;5;
73517;PMS5003;61766;60.318;25.044;2022-09-13T10:10:55;7;7;
73517;PMS5003;61766;60.318;25.044;2022-09-13T10:13:20;5;5;
73517;PMS5003;61766;60.318;25.044;2022-09-13T10:15:51;5;5;
73517;PMS5003;61766;60.318;25.044;2022-09-13T10:18:13;5;5;
73517;PMS5003;61766;60.318;25.044;2022-09-13T10:20:37;5;5;
73517;PMS5003;61766;60.318;25.044;2022-09-13T10:23:10;6;6;
73517;PMS5003;61766;60.318;25.044;2022-09-13T10:25:29;6;6;
73517;PMS5003;61766;60.318;25.044;2022-09-13T10:27:55;8;7;
73517;PMS5003;61766;60.318;25.044;2022-09-13T10:30:27;5;5;
73517;PMS5003;61766;60.318;25.044;2022-09-13T10:32:53;4;4;
73517;PMS5003;61766;60.318;25.044;2022-09-13T10:35:15;5;5;
73517;PMS5003;61766;60.318;25.044;2022-09-13T10:37:39;6;6;
73517;PMS5003;61766;60.318;25.044;2022-09-13T10:40:05;6;6;
73517;PMS5003;61766;60.318;25.044;2022-09-13T10:42:30;6;6;
73517;PMS5003;61766;60.318;25.044;2022-09-13T10:44:57;6;6;
73517;PMS5003;61766;60.318;25.044;2022-09-13T10:47:22;8;8;
73517;PMS5003;61766;60.318;25.044;2022-09-13T10:49:48;6;6;
73517;PMS5003;61766;60.318;25.044;2022-09-13T10:54:39;5;5;
73517;PMS5003;61766;60.318;25.044;2022-09-13T10:59:31;5;5;
73517;PMS5003;61766;60.318;25.044;2022-09-13T11:02:06;6;6;
73517;PMS5003;61766;60.318;25.044;2022-09-13T11:04:29;5;5;
73517;PMS5003;61766;60.318;25.044;2022-09-13T11:06:50;5;5;
73517;PMS5003;61766;60.318;25.044;2022-09-13T11:09:14;5;5;
73517;PMS5003;61766;60.318;25.044;2022-09-13T11:11:41;5;3;
73517;PMS5003;61766;60.318;25.044;2022-09-13T11:14:10;5;5;
73517;PMS5003;61766;60.318;25.044;2022-09-13T11:16:34;5;5;
73517;PMS5003;61766;60.318;25.044;2022-09-13T11:19:01;6;6;
73517;PMS5003;61766;60.318;25.044;2022-09-13T11:21:27;4;4;
73517;PMS5003;61766;60.318;25.044;2022-09-13T11:23:56;5;5;
73517;PMS5003;61766;60.318;25.044;2022-09-13T11:26:21;5;5;
73517;PMS5003;61766;60.318;25.044;2022-09-13T11:28:43;5;5;
73517;PMS5003;61766;60.318;25.044;2022-09-13T11:31:11;5;5;
73517;PMS5003;61766;60.318;25.044;2022-09-13T11:33:34;4;4;
73517;PMS5003;61766;60.318;25.044;2022-09-13T11:38:32;5;5;
73517;PMS5003;61766;60.318;25.044;2022-09-13T11:40:50;5;5;
73517;PMS5003;61766;60.318;25.044;2022-09-13T11:43:20;8;8;
73517;PMS5003;61766;60.318;25.044;2022-09-13T11:45:41;4;4;
73517;PMS5003;61766;60.318;25.044;2022-09-13T11:48:10;4;4;
73517;PMS5003;61766;60.318;25.044;2022-09-13T11:50:36;8;7;
73517;PMS5003;61766;60.318;25.044;2022-09-13T11:53:02;5;5;
73517;PMS5003;61766;60.318;25.044;2022-09-13T11:55:24;9;9;
73517;PMS5003;61766;60.318;25.044;2022-09-13T11:57:49;4;4;
73517;PMS5003;61766;60.318;25.044;2022-09-13T12:00:18;5;5;
73517;PMS5003;61766;60.318;25.044;2022-09-13T12:02:41;6;6;
73517;PMS5003;61766;60.318;25.044;2022-09-13T12:05:07;7;7;
73517;PMS5003;61766;60.318;25.044;2022-09-13T12:07:34;6;6;
73517;PMS5003;61766;60.318;25.044;2022-09-13T12:09:59;6;6;
73517;PMS5003;61766;60.318;25.044;2022-09-13T12:12:23;9;9;
73517;PMS5003;61766;60.318;25.044;2022-09-13T12:14:50;5;5;
73517;PMS5003;61766;60.318;25.044;2022-09-13T12:17:20;8;6;
73517;PMS5003;61766;60.318;25.044;2022-09-13T12:19:41;5;5;
73517;PMS5003;61766;60.318;25.044;2022-09-13T12:22:06;6;6;
73517;PMS5003;61766;60.318;25.044;2022-09-13T12:24:33;5;5;
73517;PMS5003;61766;60.318;25.044;2022-09-13T12:26:59;6;6;
73517;PMS5003;61766;60.318;25.044;2022-09-13T12:29:24;6;6;
73517;PMS5003;61766;60.318;25.044;2022-09-13T12:31:50;5;5;
73517;PMS5003;61766;60.318;25.044;2022-09-13T12:34:21;5;5;
73517;PMS5003;61766;60.318;25.044;2022-09-13T12:36:46;5;5;
73517;PMS5003;61766;60.318;25.044;2022-09-13T12:39:14;8;6;
73517;PMS5003;61766;60.318;25.044;2022-09-13T12:41:38;6;5;
73517;PMS5003;61766;60.318;25.044;2022-09-13T12:44:05;5;5;
73517;PMS5003;61766;60.318;25.044;2022-09-13T12:48:55;7;7;
73517;PMS5003;61766;60.318;25.044;2022-09-13T12:51:20;4;4;
73517;PMS5003;61766;60.318;25.044;2022-09-13T12:53:48;5;5;
73517;PMS5003;61766;60.318;25.044;2022-09-13T12:56:13;4;4;
73517;PMS5003;61766;60.318;25.044;2022-09-13T12:58:45;5;5;
73517;PMS5003;61766;60.318;25.044;2022-09-13T13:01:03;7;6;
73517;PMS5003;61766;60.318;25.044;2022-09-13T13:03:27;6;6;
73517;PMS5003;61766;60.318;25.044;2022-09-13T13:05:53;6;6;
73517;PMS5003;61766;60.318;25.044;2022-09-13T13:08:24;7;6;
73517;PMS5003;61766;60.318;25.044;2022-09-13T13:10:43;5;5;
73517;PMS5003;61766;60.318;25.044;2022-09-13T13:13:10;4;4;
73517;PMS5003;61766;60.318;25.044;2022-09-13T13:27:44;5;5;
73517;PMS5003;61766;60.318;25.044;2022-09-13T13:32:36;4;3;
73517;PMS5003;61766;60.318;25.044;2022-09-13T13:37:31;6;6;
73517;PMS5003;61766;60.318;25.044;2022-09-13T13:42:23;6;5;
73517;PMS5003;61766;60.318;25.044;2022-09-13T13:49:42;6;6;
73517;PMS5003;61766;60.318;25.044;2022-09-13T13:54:29;6;6;
73517;PMS5003;61766;60.318;25.044;2022-09-13T13:56:54;5;5;
73517;PMS5003;61766;60.318;25.044;2022-09-13T13:59:21;6;6;
73517;PMS5003;61766;60.318;25.044;2022-09-13T14:01:47;6;6;
73517;PMS5003;61766;60.318;25.044;2022-09-13T14:04:23;9;9;
73517;PMS5003;61766;60.318;25.044;2022-09-13T14:06:39;5;5;
73517;PMS5003;61766;60.318;25.044;2022-09-13T14:09:06;5;5;
73517;PMS5003;61766;60.318;25.044;2022-09-13T14:11:34;6;6;
73517;PMS5003;61766;60.318;25.044;2022-09-13T14:13:59;7;6;
73517;PMS5003;61766;60.318;25.044;2022-09-13T14:16:24;6;6;
73517;PMS5003;61766;60.318;25.044;2022-09-13T14:18:50;7;7;
73517;PMS5003;61766;60.318;25.044;2022-09-13T14:21:17;6;6;
73517;PMS5003;61766;60.318;25.044;2022-09-13T14:23:39;5;3;
73517;PMS5003;61766;60.318;25.044;2022-09-13T14:26:04;6;6;
73517;PMS5003;61766;60.318;25.044;2022-09-13T14:28:31;6;6;
73517;PMS5003;61766;60.318;25.044;2022-09-13T14:30:57;5;5;
73517;PMS5003;61766;60.318;25.044;2022-09-13T14:33:23;7;7;
73517;PMS5003;61766;60.318;25.044;2022-09-13T14:35:54;5;5;
73517;PMS5003;61766;60.318;25.044;2022-09-13T14:38:17;6;6;
73517;PMS5003;61766;60.318;25.044;2022-09-13T14:40:39;6;5;
73517;PMS5003;61766;60.318;25.044;2022-09-13T14:43:14;9;7;
73517;PMS5003;61766;60.318;25.044;2022-09-13T14:45:31;5;5;
73517;PMS5003;61766;60.318;25.044;2022-09-13T14:47:58;6;6;
73517;PMS5003;61766;60.318;25.044;2022-09-13T14:50:23;6;6;
73517;PMS5003;61766;60.318;25.044;2022-09-13T14:52:49;7;6;
73517;PMS5003;61766;60.318;25.044;2022-09-13T14:55:15;7;7;
73517;PMS5003;61766;60.318;25.044;2022-09-13T14:57:41;6;6;
73517;PMS5003;61766;60.318;25.044;2022-09-13T15:00:07;7;7;
73517;PMS5003;61766;60.318;25.044;2022-09-13T15:02:35;7;6;
73517;PMS5003;61766;60.318;25.044;2022-09-13T15:04:58;6;6;
73517;PMS5003;61766;60.318;25.044;2022-09-13T15:07:27;9;9;
73517;PMS5003;61766;60.318;25.044;2022-09-13T15:09:49;7;6;
73517;PMS5003;61766;60.318;25.044;2022-09-13T15:12:21;6;6;
73517;PMS5003;61766;60.318;25.044;2022-09-13T15:14:41;8;8;
73517;PMS5003;61766;60.318;25.044;2022-09-13T15:17:08;7;6;
73517;PMS5003;61766;60.318;25.044;2022-09-13T15:19:35;8;6;
73517;PMS5003;61766;60.318;25.044;2022-09-13T15:22:03;6;6;
73517;PMS5003;61766;60.318;25.044;2022-09-13T15:24:29;6;6;
73517;PMS5003;61766;60.318;25.044;2022-09-13T15:29:16;6;6;
73517;PMS5003;61766;60.318;25.044;2022-09-13T15:31:41;8;7;
73517;PMS5003;61766;60.318;25.044;2022-09-13T15:34:09;7;6;
73517;PMS5003;61766;60.318;25.044;2022-09-13T15:36:31;8;7;
73517;PMS5003;61766;60.318;25.044;2022-09-13T15:38:58;7;6;
73517;PMS5003;61766;60.318;25.044;2022-09-13T15:41:22;8;8;
73517;PMS5003;61766;60.318;25.044;2022-09-13T15:43:47;6;6;
73517;PMS5003;61766;60.318;25.044;2022-09-13T15:46:13;5;5;
73517;PMS5003;61766;60.318;25.044;2022-09-13T15:48:37;7;6;
73517;PMS5003;61766;60.318;25.044;2022-09-13T15:51:03;5;5;
73517;PMS5003;61766;60.318;25.044;2022-09-13T15:53:27;6;6;
73517;PMS5003;61766;60.318;25.044;2022-09-13T15:55:52;5;5;
73517;PMS5003;61766;60.318;25.044;2022-09-13T15:58:18;6;5;
73517;PMS5003;61766;60.318;25.044;2022-09-13T16:00:44;5;5;
73517;PMS5003;61766;60.318;25.044;2022-09-13T16:03:10;8;8;
73517;PMS5003;61766;60.318;25.044;2022-09-13T16:05:36;5;5;
73517;PMS5003;61766;60.318;25.044;2022-09-13T16:08:02;5;5;
73517;PMS5003;61766;60.318;25.044;2022-09-13T16:10:28;7;6;
73517;PMS5003;61766;60.318;25.044;2022-09-13T16:12:53;7;6;
73517;PMS5003;61766;60.318;25.044;2022-09-13T16:15:19;6;6;
73517;PMS5003;61766;60.318;25.044;2022-09-13T16:17:45;4;4;
73517;PMS5003;61766;60.318;25.044;2022-09-13T16:20:11;5;5;
73517;PMS5003;61766;60.318;25.044;2022-09-13T16:22:37;6;6;
73517;PMS5003;61766;60.318;25.044;2022-09-13T16:25:03;4;4;
73517;PMS5003;61766;60.318;25.044;2022-09-13T16:27:28;6;6;
73517;PMS5003;61766;60.318;25.044;2022-09-13T16:29:54;5;5;
73517;PMS5003;61766;60.318;25.044;2022-09-13T16:32:20;5;5;
73517;PMS5003;61766;60.318;25.044;2022-09-13T16:34:46;4;4;
73517;PMS5003;61766;60.318;25.044;2022-09-13T16:37:12;6;6;
73517;PMS5003;61766;60.318;25.044;2022-09-13T16:39:38;4;3;
73517;PMS5003;61766;60.318;25.044;2022-09-13T16:42:03;3;3;
73517;PMS5003;61766;60.318;25.044;2022-09-13T16:44:28;6;6;
73517;PMS5003;61766;60.318;25.044;2022-09-13T16:46:53;4;4;
73517;PMS5003;61766;60.318;25.044;2022-09-13T16:49:18;3;3;
73517;PMS5003;61766;60.318;25.044;2022-09-13T16:51:43;5;5;
73517;PMS5003;61766;60.318;25.044;2022-09-13T16:54:08;6;6;
73517;PMS5003;61766;60.318;25.044;2022-09-13T16:56:33;5;5;
73517;PMS5003;61766;60.318;25.044;2022-09-13T16:58:58;5;5;
73517;PMS5003;61766;60.318;25.044;2022-09-13T17:01:24;6;5;